createdAt,value
2018-09-05T00:01:57.493Z,97124.58
2018-09-05T00:06:52.424Z,97113.47
2018-09-05T00:11:47.317Z,97110.43
2018-09-05T00:16:45.015Z,97106.16
2018-09-05T00:21:39.801Z,97101.61
2018-09-05T00:26:34.633Z,97102.28
2018-09-05T00:31:29.466Z,97113.35
2018-09-05T00:36:24.324Z,97110.09
2018-09-05T00:41:19.110Z,97113.59
2018-09-05T00:46:13.951Z,97106.52
2018-09-05T00:51:08.737Z,97104.34
2018-09-05T00:56:03.532Z,97097.20
2018-09-05T01:00:58.341Z,97098.67
2018-09-05T01:05:53.152Z,97096.52
2018-09-05T01:10:47.986Z,97104.37
2018-09-05T01:15:42.860Z,97101.23
2018-09-05T01:20:37.762Z,97095.55
2018-09-05T01:25:32.521Z,97097.66
2018-09-05T01:30:28.638Z,97098.65
2018-09-05T01:35:23.437Z,97096.42
2018-09-05T01:40:18.257Z,97096.05
2018-09-05T01:45:13.081Z,97101.22
2018-09-05T01:50:07.913Z,97101.48
2018-09-05T01:55:02.701Z,97100.38
2018-09-05T01:59:57.477Z,97106.23
2018-09-05T02:04:52.289Z,97102.27
2018-09-05T02:09:47.078Z,97105.18
2018-09-05T02:14:41.919Z,97112.20
2018-09-05T02:19:36.693Z,97111.73
2018-09-05T02:24:31.522Z,97110.61
2018-09-05T02:29:26.292Z,97115.18
2018-09-05T02:34:21.053Z,97112.68
2018-09-05T02:39:15.850Z,97112.91
2018-09-05T02:44:15.785Z,97112.34
2018-09-05T02:49:10.853Z,97106.78
2018-09-05T02:54:05.707Z,97108.92
2018-09-05T02:59:00.446Z,97111.18
2018-09-05T03:03:55.297Z,97112.12
2018-09-05T03:08:56.754Z,97108.64
2018-09-05T03:13:51.594Z,97101.70
2018-09-05T03:18:46.371Z,97093.27
2018-09-05T03:23:41.149Z,97101.20
2018-09-05T03:28:35.926Z,97099.33
2018-09-05T03:33:30.751Z,97106.86
2018-09-05T03:38:25.520Z,97108.81
2018-09-05T03:43:20.309Z,97108.08
2018-09-05T03:48:15.092Z,97107.00
2018-09-05T03:53:09.849Z,97112.68
2018-09-05T03:58:04.709Z,97113.55
2018-09-05T04:02:59.574Z,97111.96
2018-09-05T04:07:54.380Z,97115.20
2018-09-05T04:12:49.165Z,97120.94
2018-09-05T04:17:43.940Z,97116.28
2018-09-05T04:22:38.725Z,97107.91
2018-09-05T04:27:33.542Z,97108.98
2018-09-05T04:32:28.363Z,97123.25
2018-09-05T04:37:23.182Z,97122.14
2018-09-05T04:42:18.056Z,97120.83
2018-09-05T04:47:12.816Z,97123.83
2018-09-05T04:52:07.640Z,97125.89
2018-09-05T04:57:02.405Z,97138.25
2018-09-05T05:01:57.229Z,97142.55
2018-09-05T05:06:52.041Z,97139.42
2018-09-05T05:11:46.845Z,97139.09
2018-09-05T05:16:41.634Z,97145.09
2018-09-05T05:21:36.437Z,97157.65
2018-09-05T05:26:31.260Z,97161.47
2018-09-05T05:31:26.031Z,97160.51
2018-09-05T05:36:20.828Z,97154.52
2018-09-05T05:41:15.745Z,97159.11
2018-09-05T05:46:10.850Z,97158.05
2018-09-05T05:51:06.044Z,97166.61
2018-09-05T05:56:00.841Z,97177.81
2018-09-05T06:00:55.674Z,97166.13
2018-09-05T06:05:50.491Z,97178.09
2018-09-05T06:10:45.301Z,97180.33
2018-09-05T06:15:40.133Z,97190.55
2018-09-05T06:20:34.882Z,97186.31
2018-09-05T06:25:29.653Z,97184.48
2018-09-05T06:30:24.528Z,97186.17
2018-09-05T06:35:19.264Z,97185.88
2018-09-05T06:40:14.009Z,97193.20
2018-09-05T06:45:08.989Z,97190.03
2018-09-05T06:50:03.657Z,97199.45
2018-09-05T06:55:01.313Z,97195.19
2018-09-05T06:59:56.173Z,97197.09
2018-09-05T07:04:51.237Z,97199.92
2018-09-05T07:09:46.072Z,97198.00
2018-09-05T07:14:40.960Z,97195.14
2018-09-05T07:19:35.774Z,97194.19
2018-09-05T07:24:30.598Z,97198.44
2018-09-05T07:29:25.365Z,97186.06
2018-09-05T07:34:20.153Z,97192.78
2018-09-05T07:39:14.916Z,97184.21
2018-09-05T07:44:09.724Z,97195.36
2018-09-05T07:49:04.542Z,97193.00
2018-09-05T07:53:59.351Z,97197.95
2018-09-05T07:58:54.213Z,97198.43
2018-09-05T08:03:49.025Z,97200.52
2018-09-05T08:08:43.843Z,97205.88
2018-09-05T08:13:38.632Z,97199.16
2018-09-05T08:18:34.082Z,97204.33
2018-09-05T08:23:28.903Z,97205.00
2018-09-05T08:28:23.693Z,97196.80
2018-09-05T08:33:18.732Z,97195.13
2018-09-05T08:38:13.504Z,97190.09
2018-09-05T08:43:08.407Z,97191.23
2018-09-05T08:48:05.143Z,97200.34
2018-09-05T08:53:00.051Z,97186.09
2018-09-05T08:57:54.923Z,97185.16
2018-09-05T09:02:49.898Z,97182.47
2018-09-05T09:07:44.845Z,97175.48
2018-09-05T09:12:39.705Z,97172.48
2018-09-05T09:17:34.577Z,97168.39
2018-09-05T09:22:29.497Z,97164.67
2018-09-05T09:27:24.413Z,97160.75
2018-09-05T09:32:19.274Z,97153.30
2018-09-05T09:37:14.082Z,97144.10
2018-09-05T09:42:09.049Z,97143.70
2018-09-05T09:47:03.948Z,97134.25
2018-09-05T09:52:03.970Z,97132.07
2018-09-05T09:56:59.741Z,97126.23
2018-09-05T10:01:59.722Z,97121.84
2018-09-05T10:06:59.612Z,97113.13
2018-09-05T10:11:59.407Z,97114.71
2018-09-05T10:16:59.225Z,97104.66
2018-09-05T10:21:55.304Z,97106.38
2018-09-05T10:26:50.109Z,97101.91
2018-09-05T10:31:45.009Z,97094.08
2018-09-05T10:36:40.737Z,97089.28
2018-09-05T10:41:35.600Z,97091.41
2018-09-05T10:46:30.449Z,97096.28
2018-09-05T10:51:30.343Z,97089.70
2018-09-05T10:56:25.161Z,97089.05
2018-09-05T11:01:20.027Z,97079.98
2018-09-05T11:06:14.833Z,97077.91
2018-09-05T11:11:16.120Z,97075.61
2018-09-05T11:16:11.004Z,97073.82
2018-09-05T11:21:05.961Z,97070.61
2018-09-05T11:26:00.794Z,97062.75
2018-09-05T11:30:56.137Z,97065.59
2018-09-05T11:35:50.949Z,97053.05
2018-09-05T11:40:48.722Z,97045.23
2018-09-05T11:45:43.681Z,97033.66
2018-09-05T11:50:38.473Z,97029.89
2018-09-05T11:55:33.265Z,97035.56
2018-09-05T12:00:28.053Z,97027.17
2018-09-05T12:05:22.913Z,97022.67
2018-09-05T12:10:17.772Z,97027.51
2018-09-05T12:15:14.095Z,97014.45
2018-09-05T12:20:08.897Z,97010.52
2018-09-05T12:25:03.678Z,97014.96
2018-09-05T12:29:58.467Z,97006.64
2018-09-05T12:34:53.264Z,97001.59
2018-09-05T12:39:48.131Z,97000.02
2018-09-05T12:44:43.381Z,96987.58
2018-09-05T12:49:38.201Z,96986.50
2018-09-05T12:54:33.120Z,96984.88
2018-09-05T12:59:27.888Z,96973.49
2018-09-05T13:04:22.678Z,96970.09
2018-09-05T13:09:17.455Z,96968.16
2018-09-05T13:14:12.280Z,96972.77
2018-09-05T13:19:07.206Z,96971.44
2018-09-05T13:24:02.060Z,96966.64
2018-09-05T13:28:57.028Z,96959.72
2018-09-05T13:33:51.810Z,96957.22
2018-09-05T13:38:46.617Z,96953.51
2018-09-05T13:43:41.399Z,96948.23
2018-09-05T13:48:36.215Z,96950.53
2018-09-05T13:53:31.404Z,96950.00
2018-09-05T13:58:26.342Z,96945.47
2018-09-05T14:03:21.181Z,96945.45
2018-09-05T14:08:16.009Z,96940.72
2018-09-05T14:13:10.766Z,96940.80
2018-09-05T14:18:05.605Z,96934.84
2018-09-05T14:23:00.364Z,96932.81
2018-09-05T14:27:55.166Z,96926.34
2018-09-05T14:32:50.444Z,96922.70
2018-09-05T14:37:45.621Z,96919.81
2018-09-05T14:42:40.552Z,96918.36
2018-09-05T14:47:35.445Z,96907.60
2018-09-05T14:52:30.290Z,96909.47
2018-09-05T14:57:25.199Z,96906.55
2018-09-05T15:02:21.047Z,96905.90
2018-09-05T15:07:15.898Z,96902.69
2018-09-05T15:12:10.755Z,96897.25
2018-09-05T15:17:05.617Z,96894.70
2018-09-05T15:22:00.396Z,96894.78
2018-09-05T15:26:55.173Z,96887.88
2018-09-05T15:31:49.986Z,96887.05
2018-09-05T15:36:45.054Z,96881.86
2018-09-05T15:41:39.972Z,96879.62
2018-09-05T15:46:34.805Z,96872.92
2018-09-05T15:51:29.590Z,96879.09
2018-09-05T15:56:24.368Z,96880.74
2018-09-05T16:01:21.249Z,96887.95
2018-09-05T16:06:16.148Z,96885.44
2018-09-05T16:11:10.957Z,96890.31
2018-09-05T16:16:05.843Z,96884.91
2018-09-05T16:21:00.644Z,96886.44
2018-09-05T16:25:55.433Z,96882.22
2018-09-05T16:30:50.214Z,96883.16
2018-09-05T16:35:45.066Z,96886.80
2018-09-05T16:40:39.961Z,96881.45
2018-09-05T16:45:34.857Z,96878.39
2018-09-05T16:50:29.657Z,96879.39
2018-09-05T16:55:24.505Z,96886.49
2018-09-05T17:00:19.330Z,96879.91
2018-09-05T17:05:14.151Z,96880.10
2018-09-05T17:10:09.005Z,96883.03
2018-09-05T17:15:03.781Z,96883.10
2018-09-05T17:19:58.585Z,96883.48
2018-09-05T17:24:53.470Z,96883.62
2018-09-05T17:29:48.266Z,96885.83
2018-09-05T17:34:43.081Z,96882.74
2018-09-05T17:39:37.901Z,96872.16
2018-09-05T17:44:32.687Z,96880.78
2018-09-05T17:49:27.482Z,96884.09
2018-09-05T17:54:22.290Z,96877.82
2018-09-05T17:59:17.063Z,96882.11
2018-09-05T18:04:11.909Z,96884.63
2018-09-05T18:09:09.278Z,96888.23
2018-09-05T18:14:04.176Z,96891.00
2018-09-05T18:18:59.048Z,96894.78
2018-09-05T18:23:53.826Z,96897.03
2018-09-05T18:28:48.618Z,96899.45
2018-09-05T18:33:43.465Z,96902.04
2018-09-05T18:38:38.334Z,96899.52
2018-09-05T18:43:33.124Z,96897.41
2018-09-05T18:48:27.995Z,96897.14
2018-09-05T18:53:22.801Z,96897.64
2018-09-05T18:58:17.605Z,96901.81
2018-09-05T19:03:14.309Z,96904.15
2018-09-05T19:08:09.163Z,96900.16
2018-09-05T19:13:03.961Z,96901.17
2018-09-05T19:17:58.781Z,96906.02
2018-09-05T19:22:53.625Z,96906.28
2018-09-05T19:27:48.456Z,96909.27
2018-09-05T19:32:43.275Z,96909.39
2018-09-05T19:37:38.552Z,96901.89
2018-09-05T19:42:33.428Z,96905.55
2018-09-05T19:47:28.250Z,96903.38
2018-09-05T19:52:23.052Z,96898.23
2018-09-05T19:57:17.890Z,96901.11
2018-09-05T20:02:12.817Z,96899.17
2018-09-05T20:07:07.738Z,96914.19
2018-09-05T20:12:02.539Z,96919.50
2018-09-05T20:16:57.361Z,96919.00
2018-09-05T20:21:52.713Z,96918.83
2018-09-05T20:26:47.498Z,96917.00
2018-09-05T20:31:42.345Z,96922.31
2018-09-05T20:36:37.165Z,96915.99
2018-09-05T20:41:32.517Z,96910.50
2018-09-05T20:46:27.509Z,96903.71
2018-09-05T20:51:22.492Z,96900.61
2018-09-05T20:56:17.328Z,96899.40
2018-09-05T21:01:12.236Z,96895.59
2018-09-05T21:06:07.533Z,96893.44
2018-09-05T21:11:02.365Z,96897.58
2018-09-05T21:15:57.330Z,96891.45
2018-09-05T21:20:52.193Z,96890.63
2018-09-05T21:25:47.081Z,96896.41
2018-09-05T21:30:41.983Z,96898.58
2018-09-05T21:35:36.810Z,96891.76
2018-09-05T21:40:31.723Z,96900.19
2018-09-05T21:45:26.645Z,96898.86
2018-09-05T21:50:21.677Z,96901.70
2018-09-05T21:55:16.612Z,96897.98
2018-09-05T22:00:12.003Z,96900.64
2018-09-05T22:05:06.884Z,96903.33
2018-09-05T22:10:01.734Z,96907.61
2018-09-05T22:14:56.581Z,96901.27
2018-09-05T22:19:51.529Z,96893.00
2018-09-05T22:24:46.397Z,96895.66
2018-09-05T22:29:41.324Z,96889.27
2018-09-05T22:34:36.302Z,96886.05
2018-09-05T22:39:31.167Z,96896.73
2018-09-05T22:44:42.467Z,96901.36
2018-09-05T23:02:10.899Z,96899.17
2018-09-05T23:07:22.239Z,96896.66
2018-09-05T23:12:33.586Z,96897.64
2018-09-05T23:17:46.844Z,96886.25
2018-09-05T23:24:54.236Z,96889.30
2018-09-05T23:29:49.093Z,96891.89
2018-09-05T23:34:44.038Z,96879.23
2018-09-05T23:39:38.930Z,96873.16
2018-09-05T23:44:33.815Z,96877.89
2018-09-05T23:49:29.537Z,96872.92
2018-09-05T23:54:24.436Z,96867.34
2018-09-05T23:59:19.218Z,96873.66
